Denton Municipal Airport


Codes: KDTO/
Name: Denton Municipal Airport
City: Denton
Country: United States
Elevation: 642 ft.
Website:

Photos at Denton Municipal Airport


   Photos courtesy of SpottingLog. You can add your own sightings and photos by signing up for a free trial today.



No photos found.

Weather at Denton Municipal Airport


Time (UTC)DescriptionTempratureWindCloud coverageVisibilityPressureHumidity
15-Apr-2024 18:00Overcast Clouds22°C16 mph, S100%10000m1010hPa87%
15-Apr-2024 21:00Overcast Clouds23°C18 mph, SE100%10000m1009hPa83%
16-Apr-2024 00:00Overcast Clouds22°C16 mph, SE100%10000m1009hPa85%
16-Apr-2024 03:00Light Rain21°C18 mph, SE100%10000m1009hPa92%
16-Apr-2024 06:00Light Rain21°C22 mph, S72%10000m1007hPa91%
16-Apr-2024 09:00Light Rain20°C20 mph, S82%10000m1006hPa92%
16-Apr-2024 12:00Light Rain20°C20 mph, S90%10000m1007hPa91%
16-Apr-2024 15:00Scattered Clouds24°C18 mph, SW38%10000m1008hPa74%
16-Apr-2024 18:00Scattered Clouds27°C16 mph, SW25%10000m1007hPa28%
16-Apr-2024 21:00Overcast Clouds29°C13 mph, SW89%10000m1005hPa33%
17-Apr-2024 00:00Overcast Clouds25°C7 mph, SW94%10000m1006hPa46%
17-Apr-2024 03:00Overcast Clouds22°C11 mph, S100%10000m1008hPa34%
17-Apr-2024 06:00Overcast Clouds21°C16 mph, S100%10000m1008hPa91%
17-Apr-2024 09:00Overcast Clouds19°C2 mph, NW100%10000m1009hPa95%
17-Apr-2024 12:00Overcast Clouds19°C4 mph, SW100%10000m1011hPa96%
17-Apr-2024 15:00Overcast Clouds20°C7 mph, NE100%10000m1013hPa70%
17-Apr-2024 18:00Overcast Clouds25°C2 mph, E100%10000m1012hPa44%
17-Apr-2024 21:00Overcast Clouds28°C2 mph, E100%10000m1010hPa34%
18-Apr-2024 00:00Overcast Clouds25°C2 mph, W100%10000m1010hPa50%
18-Apr-2024 03:00Overcast Clouds21°C4 mph, NE100%10000m1012hPa53%
18-Apr-2024 06:00Overcast Clouds20°C0 mph, SW100%10000m1012hPa66%
18-Apr-2024 09:00Light Rain21°C7 mph, S92%10000m1010hPa92%
18-Apr-2024 12:00Broken Clouds20°C9 mph, S78%10000m1011hPa94%
18-Apr-2024 15:00Broken Clouds25°C9 mph, S57%10000m1011hPa77%
18-Apr-2024 18:00Broken Clouds31°C13 mph, SW53%10000m1010hPa58%
18-Apr-2024 21:00Scattered Clouds34°C13 mph, S31%10000m1007hPa42%
19-Apr-2024 00:00Heavy Intensity Rain19°C25 mph, S49%10000m1009hPa93%
19-Apr-2024 03:00Light Rain19°C7 mph, W100%10000m1014hPa91%
19-Apr-2024 06:00Overcast Clouds17°C20 mph, N100%10000m1014hPa91%
19-Apr-2024 09:00Broken Clouds13°C13 mph, N72%10000m1016hPa84%
19-Apr-2024 12:00Overcast Clouds11°C16 mph, N86%10000m1017hPa85%
19-Apr-2024 15:00Overcast Clouds14°C13 mph, N100%10000m1020hPa79%
19-Apr-2024 18:00Overcast Clouds18°C11 mph, NE99%10000m1019hPa73%
19-Apr-2024 21:00Overcast Clouds21°C11 mph, NE100%10000m1017hPa67%
20-Apr-2024 00:00Overcast Clouds20°C9 mph, NE94%10000m1016hPa73%
20-Apr-2024 03:00Overcast Clouds18°C7 mph, NE100%10000m1018hPa83%
20-Apr-2024 06:00Light Rain17°C7 mph, NE100%10000m1018hPa92%
20-Apr-2024 09:00Light Rain16°C11 mph, NE100%10000m1018hPa96%
20-Apr-2024 12:00Light Rain15°C11 mph, NE100%10000m1018hPa95%
20-Apr-2024 15:00Light Rain15°C13 mph, E100%10000m1020hPa93%